Time;durP1;ratioP1;P1;durP2;ratioP2;P2;SDS_P1;SDS_P2;PMS_P1;PMS_P2;Temp;Humidity;BMP_temperature;BMP_pressure;BME280_temperature;BME280_humidity;BME280_pressure;Samples;Min_cycle;Max_cycle;Signal;HPM_P1;HPM_P2
2021/10/11 00:00:06;;;;;;;;;58.75;47.00;;;;;13.01;67.70;101999.69;5056527;28;45376;-61
2021/10/11 00:02:31;;;;;;;;;64.00;48.00;;;;;13.02;67.77;102001.38;5038766;28;45331;-61
2021/10/11 00:04:57;;;;;;;;;58.50;45.00;;;;;13.03;67.89;102005.69;5055853;28;63002;-61
2021/10/11 00:07:22;;;;;;;;;63.00;48.00;;;;;13.03;67.51;102003.06;5055868;28;45652;-61
2021/10/11 00:09:47;;;;;;;;;61.25;47.75;;;;;13.04;67.83;102010.03;5055451;28;70269;-61
2021/10/11 00:12:13;;;;;;;;;57.50;45.00;;;;;13.04;67.57;102002.09;5056310;28;45290;-61
2021/10/11 00:14:38;;;;;;;;;62.50;46.75;;;;;13.04;67.93;102010.84;5055753;28;61642;-61
2021/10/11 00:17:03;;;;;;;;;59.75;46.25;;;;;13.05;67.63;101999.34;5056316;28;46666;-61
2021/10/11 00:19:35;;;;;;;;;60.75;45.75;;;;;13.05;67.58;102001.16;5037416;28;70439;-61
2021/10/11 00:22:00;;;;;;;;;62.75;47.00;;;;;13.07;67.92;102004.50;5056141;28;45753;-61
2021/10/11 00:24:25;;;;;;;;;57.75;44.50;;;;;13.07;67.49;101993.97;5056343;28;45672;-60
2021/10/11 00:26:51;;;;;;;;;58.00;45.75;;;;;13.05;68.03;101993.22;5055660;28;64598;-61
2021/10/11 00:29:16;;;;;;;;;59.25;47.00;;;;;13.03;67.59;102005.69;5055403;28;73712;-61
2021/10/11 00:31:42;;;;;;;;;60.00;46.00;;;;;13.02;67.87;101988.19;5055413;28;68532;-61
2021/10/11 00:34:07;;;;;;;;;59.00;45.50;;;;;13.03;68.04;101997.78;5055584;28;60799;-61
2021/10/11 00:36:32;;;;;;;;;58.50;46.00;;;;;13.01;67.89;101997.88;5056037;28;45561;-61
2021/10/11 00:38:58;;;;;;;;;58.25;46.00;;;;;13.00;68.07;101993.56;5055075;28;73664;-61
2021/10/11 00:41:27;;;;;;;;;61.75;46.25;;;;;13.00;67.62;102003.28;5055160;28;70996;-61
2021/10/11 00:43:53;;;;;;;;;57.75;45.50;;;;;13.00;67.69;101995.38;5037686;28;45379;-61
2021/10/11 00:46:18;;;;;;;;;61.00;47.25;;;;;13.00;68.05;101992.75;5021475;28;46263;-61
2021/10/11 00:48:44;;;;;;;;;56.75;46.00;;;;;13.00;68.36;101998.84;5055575;28;63220;-61
2021/10/11 00:51:09;;;;;;;;;62.25;47.00;;;;;12.99;67.81;101998.97;5058840;28;67527;-61
2021/10/11 00:53:35;;;;;;;;;59.00;45.50;;;;;12.98;68.30;101995.47;5059836;28;45439;-61
2021/10/11 00:56:00;;;;;;;;;63.25;47.25;;;;;12.99;67.70;101999.78;5025126;28;45316;-61
2021/10/11 00:58:25;;;;;;;;;61.50;45.25;;;;;13.01;67.92;101991.78;5058362;28;71810;-61
2021/10/11 01:00:51;;;;;;;;;61.25;45.50;;;;;12.98;68.02;101992.84;5058632;28;64150;-61
2021/10/11 01:03:16;;;;;;;;;59.25;47.25;;;;;12.97;68.09;101991.19;5059472;28;45790;-61
2021/10/11 01:05:42;;;;;;;;;59.75;45.75;;;;;12.96;68.30;101999.19;5023748;28;64141;-61
2021/10/11 01:08:07;;;;;;;;;59.50;45.00;;;;;12.94;67.86;101991.41;5058408;28;66664;-61
2021/10/11 01:10:32;;;;;;;;;59.50;44.25;;;;;12.93;67.61;101989.72;5059218;28;45416;-61
2021/10/11 01:12:58;;;;;;;;;59.75;47.50;;;;;12.93;68.07;101995.00;5058697;28;55791;-61
2021/10/11 01:15:23;;;;;;;;;62.75;47.00;;;;;12.91;67.88;101991.66;5059296;28;45329;-61
2021/10/11 01:17:48;;;;;;;;;58.25;45.25;;;;;12.90;68.39;101998.69;5058121;28;70802;-61
2021/10/11 01:20:14;;;;;;;;;58.00;46.75;;;;;12.90;68.41;102003.97;5059104;28;45275;-61
2021/10/11 01:22:41;;;;;;;;;62.50;46.25;;;;;12.91;68.16;101997.75;5058942;28;45400;-61
2021/10/11 01:25:08;;;;;;;;;54.75;40.75;;;;;12.92;67.94;102009.16;5059214;28;45413;-61
2021/10/11 01:27:34;;;;;;;;;62.75;45.25;;;;;12.91;67.36;102013.56;5058942;28;46900;-61
2021/10/11 01:29:59;;;;;;;;;58.00;45.00;;;;;12.90;68.22;102006.63;5059015;28;45393;-61
2021/10/11 01:32:25;;;;;;;;;61.00;46.75;;;;;12.94;68.46;102007.25;5058974;28;45292;-61
2021/10/11 01:34:50;;;;;;;;;61.50;47.00;;;;;12.96;69.23;102005.34;5059019;28;45344;-61
2021/10/11 01:37:16;;;;;;;;;58.25;47.25;;;;;12.96;70.19;102007.13;5058799;28;45327;-61
2021/10/11 01:39:41;;;;;;;;;61.25;46.25;;;;;12.97;69.78;101995.59;5058834;28;45310;-61
2021/10/11 01:42:06;;;;;;;;;61.75;44.25;;;;;12.99;70.21;101988.41;5058165;28;65486;-61
2021/10/11 01:44:32;;;;;;;;;55.25;44.50;;;;;13.01;70.49;101976.78;5058081;28;58928;-61
2021/10/11 01:46:57;;;;;;;;;57.00;43.50;;;;;13.02;71.05;101980.28;5040632;28;45493;-61
2021/10/11 01:49:23;;;;;;;;;51.75;42.00;;;;;13.04;71.15;101976.53;5039906;28;53196;-60
2021/10/11 01:51:48;;;;;;;;;57.00;43.00;;;;;13.06;71.52;101976.44;5058714;28;45642;-61
2021/10/11 01:54:13;;;;;;;;;52.25;41.00;;;;;13.08;71.81;101982.44;5058115;28;59302;-61
2021/10/11 01:56:39;;;;;;;;;57.25;44.25;;;;;13.11;71.87;101989.28;5057508;28;70956;-61
2021/10/11 01:59:04;;;;;;;;;58.50;45.00;;;;;13.13;72.08;101990.84;5057558;28;68470;-61
2021/10/11 02:01:29;;;;;;;;;52.00;40.75;;;;;13.15;71.61;101986.31;5039273;28;61243;-61
2021/10/11 02:03:55;;;;;;;;;61.25;45.00;;;;;13.18;71.74;101983.44;5057607;28;66588;-61
2021/10/11 02:06:22;;;;;;;;;56.00;42.50;;;;;13.18;71.77;101994.00;5057427;28;73552;-61
2021/10/11 02:08:47;;;;;;;;;57.25;44.50;;;;;13.18;72.52;101988.72;5040522;28;45464;-61
2021/10/11 02:11:12;;;;;;;;;56.75;42.25;;;;;13.19;72.41;101977.19;5058614;28;45411;-61
2021/10/11 02:13:38;;;;;;;;;50.50;39.75;;;;;13.20;71.96;101978.88;5057533;28;61887;-61
2021/10/11 02:16:03;;;;;;;;;55.50;44.00;;;;;13.23;72.21;101980.44;5057411;28;65597;-61
2021/10/11 02:18:29;;;;;;;;;58.50;43.75;;;;;13.26;72.11;101981.97;5057677;28;45364;-61
2021/10/11 02:20:54;;;;;;;;;52.75;40.25;;;;;13.29;72.57;101984.38;5058445;28;45674;-61
2021/10/11 02:23:19;;;;;;;;;52.50;41.75;;;;;13.31;72.89;101980.69;5039365;28;59884;-61
2021/10/11 02:25:45;;;;;;;;;53.50;41.50;;;;;13.34;72.37;101988.38;5057267;28;66545;-61
2021/10/11 02:28:11;;;;;;;;;56.50;42.00;;;;;13.39;72.28;101979.25;5023548;28;45382;-61
2021/10/11 02:30:36;;;;;;;;;53.00;40.25;;;;;13.44;72.18;101982.41;5057367;28;62737;-61
2021/10/11 02:33:01;;;;;;;;;53.00;41.50;;;;;13.45;72.08;101982.28;5057112;28;65671;-61
2021/10/11 02:35:27;;;;;;;;;51.75;39.75;;;;;13.46;72.12;101969.94;5057827;28;45344;-61
2021/10/11 02:37:52;;;;;;;;;52.00;42.00;;;;;13.48;72.66;101970.66;5056808;28;71593;-61
2021/10/11 02:40:17;;;;;;;;;53.25;40.25;;;;;13.50;72.66;101966.91;5057182;28;60925;-61
2021/10/11 02:42:43;;;;;;;;;54.00;42.00;;;;;13.52;72.18;101966.78;5057057;28;63618;-61
2021/10/11 02:45:09;;;;;;;;;52.75;41.75;;;;;13.56;72.47;101959.47;5056914;28;65799;-61
2021/10/11 02:47:34;;;;;;;;;53.75;40.00;;;;;13.59;72.24;101959.25;5039276;28;45368;-61
2021/10/11 02:49:59;;;;;;;;;54.75;40.75;;;;;13.62;72.26;101956.34;5057852;28;45367;-61
2021/10/11 02:52:28;;;;;;;;;50.75;39.00;;;;;13.65;72.35;101953.47;5056715;28;67391;-61
2021/10/11 02:54:53;;;;;;;;;55.00;39.25;;;;;13.65;72.32;101953.47;5057431;28;46272;-61
2021/10/11 02:57:19;;;;;;;;;50.00;39.25;;;;;13.68;71.69;101950.59;5039614;28;45321;-61
2021/10/11 02:59:44;;;;;;;;;58.25;43.50;;;;;13.70;72.11;101946.03;5039014;28;59171;-61
2021/10/11 03:02:10;;;;;;;;;51.25;40.25;;;;;13.72;71.97;101936.19;5038848;28;62041;-61
2021/10/11 03:04:35;;;;;;;;;49.50;40.50;;;;;13.75;71.67;101943.00;5056696;28;70540;-61
2021/10/11 03:07:01;;;;;;;;;54.00;40.50;;;;;13.77;71.57;101943.72;5057444;28;45432;-61
2021/10/11 03:09:26;;;;;;;;;55.25;43.50;;;;;13.79;71.55;101942.63;5056807;28;59942;-61
2021/10/11 03:11:52;;;;;;;;;55.25;40.75;;;;;13.80;71.95;101939.03;5037887;28;45347;-61
2021/10/11 03:14:17;;;;;;;;;50.75;41.75;;;;;13.78;71.70;101940.13;5056453;28;67536;-61
2021/10/11 03:16:42;;;;;;;;;56.50;43.50;;;;;13.78;71.88;101938.31;5056479;28;66602;-61
2021/10/11 03:19:08;;;;;;;;;56.25;42.75;;;;;13.77;71.92;101951.66;5056377;28;64708;-61
2021/10/11 03:21:33;;;;;;;;;52.00;42.50;;;;;13.77;71.76;101949.00;5056618;28;59926;-61
2021/10/11 03:23:58;;;;;;;;;53.25;42.25;;;;;13.76;71.92;101945.53;5056114;28;62124;-61
2021/10/11 03:26:24;;;;;;;;;59.25;45.00;;;;;13.75;71.32;101943.88;5056972;28;45472;-61
2021/10/11 03:28:49;;;;;;;;;62.50;46.75;;;;;13.73;72.05;101951.06;5056611;28;59967;-61
2021/10/11 03:31:15;;;;;;;;;55.00;42.25;;;;;13.73;71.74;101947.56;5057169;28;45342;-61
2021/10/11 03:33:40;;;;;;;;;55.25;44.25;;;;;13.73;71.50;101948.44;5056696;28;45453;-61
2021/10/11 03:36:05;;;;;;;;;54.75;42.75;;;;;13.74;71.63;101949.25;5056038;28;69289;-61
2021/10/11 03:38:31;;;;;;;;;56.00;44.00;;;;;13.75;71.63;101957.06;5039070;28;45352;-61
2021/10/11 03:40:56;;;;;;;;;54.50;40.75;;;;;13.75;71.37;101965.00;5057006;28;45544;-61
2021/10/11 03:43:22;;;;;;;;;53.50;41.50;;;;;13.75;71.38;101967.63;5038844;28;45300;-61
2021/10/11 03:45:47;;;;;;;;;51.50;41.25;;;;;13.76;71.40;101960.53;5056727;28;45356;-61
2021/10/11 03:48:13;;;;;;;;;49.00;39.50;;;;;13.76;71.33;101965.81;5056070;28;63054;-61
2021/10/11 03:50:38;;;;;;;;;49.00;37.50;;;;;13.74;71.80;101963.31;5056905;28;45246;-61
2021/10/11 03:53:03;;;;;;;;;47.00;35.50;;;;;13.76;71.34;101965.81;5056479;28;48845;-61
2021/10/11 03:55:29;;;;;;;;;49.00;40.00;;;;;13.77;71.54;101965.72;5056019;28;64206;-61
2021/10/11 03:57:54;;;;;;;;;45.75;37.75;;;;;13.78;71.35;101966.53;5022144;28;45632;-61
2021/10/11 04:00:19;;;;;;;;;47.75;36.25;;;;;13.79;71.55;101962.94;5055866;28;62424;-61
2021/10/11 04:02:45;;;;;;;;;47.75;37.50;;;;;13.80;71.22;101968.09;5056678;28;48514;-61
2021/10/11 04:05:10;;;;;;;;;43.50;35.50;;;;;13.83;71.78;101966.16;5055610;28;65654;-61
2021/10/11 04:07:38;;;;;;;;;43.75;34.25;;;;;13.84;71.98;101966.06;5056529;28;45614;-61
2021/10/11 04:10:05;;;;;;;;;41.50;33.25;;;;;13.83;71.69;101955.59;5056684;28;45412;-61
2021/10/11 04:12:35;;;;;;;;;43.50;32.75;;;;;13.84;71.37;101967.84;5055041;28;48465;-61
2021/10/11 04:15:01;;;;;;;;;35.25;30.25;;;;;13.85;71.79;101958.94;5039202;28;45925;-61
2021/10/11 04:17:27;;;;;;;;;39.50;33.00;;;;;13.85;71.49;101964.25;5056518;28;45402;-61
2021/10/11 04:19:52;;;;;;;;;32.00;30.00;;;;;13.86;71.65;101963.28;5056557;28;45519;-61
2021/10/11 04:22:17;;;;;;;;;34.75;30.00;;;;;13.87;71.47;101962.31;5056060;28;51361;-61
2021/10/11 04:24:43;;;;;;;;;34.25;28.00;;;;;13.87;71.54;101960.53;5054720;28;68021;-61
2021/10/11 04:27:08;;;;;;;;;33.50;27.75;;;;;13.87;71.80;101971.09;5056235;28;45323;-61
2021/10/11 04:29:33;;;;;;;;;30.75;28.75;;;;;13.89;71.50;101970.97;5056100;28;45979;-61
2021/10/11 04:31:59;;;;;;;;;38.25;30.50;;;;;13.88;71.75;101969.28;5055546;28;59821;-61
2021/10/11 04:34:24;;;;;;;;;37.50;30.75;;;;;13.90;71.47;101972.63;5055016;28;65857;-61
2021/10/11 04:36:50;;;;;;;;;28.25;24.25;;;;;13.88;71.82;101980.69;5055419;28;60985;-61
2021/10/11 04:39:15;;;;;;;;;32.25;27.25;;;;;13.88;71.25;101977.22;5055407;28;62725;-61
2021/10/11 04:41:40;;;;;;;;;28.50;24.25;;;;;13.88;71.39;101979.84;5055951;28;45396;-61
2021/10/11 04:44:06;;;;;;;;;28.50;21.75;;;;;13.87;71.17;101980.81;5054991;28;67502;-61
2021/10/11 04:46:31;;;;;;;;;29.25;22.75;;;;;13.86;71.36;101981.78;5055209;28;61958;-61
2021/10/11 04:48:57;;;;;;;;;24.00;22.25;;;;;13.83;71.28;101982.88;5055894;28;45537;-61
2021/10/11 04:51:22;;;;;;;;;30.50;24.50;;;;;13.81;71.54;101990.06;5055742;28;45364;-61
2021/10/11 04:53:48;;;;;;;;;24.25;22.50;;;;;13.79;71.56;101984.06;5037803;28;45479;-61
2021/10/11 04:56:13;;;;;;;;;27.00;22.00;;;;;13.77;71.11;101975.44;5056000;28;45366;-61
2021/10/11 04:58:39;;;;;;;;;23.75;22.00;;;;;13.76;71.01;101979.03;5055674;28;45263;-61
2021/10/11 05:01:04;;;;;;;;;25.50;24.25;;;;;13.73;71.14;101977.47;5054748;28;69463;-61
2021/10/11 05:03:29;;;;;;;;;27.25;23.25;;;;;13.69;71.17;101989.25;5055727;28;45298;-61
2021/10/11 05:05:55;;;;;;;;;24.75;19.75;;;;;13.66;71.29;101986.84;5055540;28;50638;-61
2021/10/11 05:08:20;;;;;;;;;27.75;26.25;;;;;13.63;71.55;101981.81;5054615;28;65012;-61
2021/10/11 05:10:45;;;;;;;;;28.25;22.75;;;;;13.62;71.29;101985.41;5055345;28;45331;-61
2021/10/11 05:13:11;;;;;;;;;26.25;24.00;;;;;13.59;71.34;101986.47;5036125;28;65016;-61
2021/10/11 05:15:36;;;;;;;;;27.50;23.75;;;;;13.58;71.44;101982.16;5054598;28;60974;-61
2021/10/11 05:18:02;;;;;;;;;35.25;25.00;;;;;13.57;71.49;101987.56;5055382;28;45992;-61
2021/10/11 05:20:32;;;;;;;;;25.00;22.25;;;;;13.56;71.67;101981.44;5055115;28;46063;-61
2021/10/11 05:22:57;;;;;;;;;28.00;21.75;;;;;13.54;71.14;101971.97;5055552;28;45872;-61
2021/10/11 05:25:22;;;;;;;;;34.75;30.00;;;;;13.50;71.49;101972.19;5036628;28;61748;-61
2021/10/11 05:27:48;;;;;;;;;42.25;33.25;;;;;13.49;71.57;101986.34;5019199;28;65772;-61
2021/10/11 05:30:13;;;;;;;;;39.50;30.00;;;;;13.46;71.20;101981.31;5035148;28;70716;-61
2021/10/11 05:32:39;;;;;;;;;34.50;27.75;;;;;13.45;71.55;101990.19;5054233;28;45416;-61
2021/10/11 05:35:04;;;;;;;;;26.75;22.75;;;;;13.44;71.01;101987.69;5054987;28;45451;-61
2021/10/11 05:37:30;;;;;;;;;25.50;24.00;;;;;13.42;70.86;101984.31;5022469;28;45366;-61
2021/10/11 05:39:55;;;;;;;;;24.50;22.00;;;;;13.39;70.84;101990.63;5057328;28;45462;-61
2021/10/11 05:42:20;;;;;;;;;21.25;16.00;;;;;13.34;71.08;101987.50;5022911;28;56179;-61
2021/10/11 05:44:46;;;;;;;;;26.25;20.00;;;;;13.31;70.84;101993.03;5058671;28;45824;-61
2021/10/11 05:47:12;;;;;;;;;27.50;21.50;;;;;13.28;71.12;101998.53;5058683;28;45606;-61
2021/10/11 05:49:37;;;;;;;;;25.75;20.00;;;;;13.23;70.93;101992.78;5058567;28;47498;-61
2021/10/11 05:52:03;;;;;;;;;29.25;22.25;;;;;13.19;71.30;102003.59;5057576;28;67831;-61
2021/10/11 05:54:28;;;;;;;;;23.00;18.00;;;;;13.15;71.38;102002.13;5058409;28;45484;-61
2021/10/11 05:56:54;;;;;;;;;22.75;18.75;;;;;13.13;71.10;102006.69;5058354;28;45597;-61
2021/10/11 05:59:20;;;;;;;;;24.50;18.75;;;;;13.09;71.32;102010.53;5058326;28;46382;-61
2021/10/11 06:01:45;;;;;;;;;23.50;18.25;;;;;13.08;70.86;102019.38;5057824;28;55409;-61
2021/10/11 06:04:11;;;;;;;;;20.25;18.75;;;;;13.05;71.20;102016.97;5058549;28;45335;-61
2021/10/11 06:06:36;;;;;;;;;20.00;19.25;;;;;13.02;71.26;102025.13;5057745;28;64992;-60
2021/10/11 06:09:01;;;;;;;;;26.25;20.25;;;;;12.97;71.32;102025.47;5057332;28;67787;-61
2021/10/11 06:11:27;;;;;;;;;20.25;17.25;;;;;12.93;71.05;102031.94;5058034;28;45313;-61
2021/10/11 06:13:52;;;;;;;;;17.00;16.00;;;;;12.89;71.56;102033.94;5057201;28;59961;-61
2021/10/11 06:16:18;;;;;;;;;24.00;17.75;;;;;12.84;71.32;102033.44;5058065;28;45487;-61
2021/10/11 06:18:43;;;;;;;;;18.75;16.75;;;;;12.81;71.41;102033.69;5056994;28;71175;-60
2021/10/11 06:21:08;;;;;;;;;19.00;18.00;;;;;12.77;71.17;102032.22;5057335;28;62296;-61
2021/10/11 06:23:34;;;;;;;;;21.00;17.00;;;;;12.74;71.17;102033.31;5057829;28;45711;-61
2021/10/11 06:25:59;;;;;;;;;18.75;17.00;;;;;12.73;71.42;102036.91;5057450;28;63417;-61
2021/10/11 06:28:24;;;;;;;;;17.25;17.00;;;;;12.74;71.95;102037.72;5039807;28;46601;-61
2021/10/11 06:30:50;;;;;;;;;21.00;17.00;;;;;12.73;71.50;102044.81;5057769;28;45219;-61
2021/10/11 06:33:16;;;;;;;;;25.75;19.75;;;;;12.73;71.39;102041.31;5057803;28;45760;-60
2021/10/11 06:35:41;;;;;;;;;20.00;18.50;;;;;12.74;72.03;102043.00;5022817;28;45377;-61
2021/10/11 06:38:07;;;;;;;;;19.00;16.75;;;;;12.74;71.47;102043.84;5057589;28;45569;-61
2021/10/11 06:40:32;;;;;;;;;16.25;14.50;;;;;12.74;71.62;102045.63;5056993;28;68464;-61
2021/10/11 06:42:58;;;;;;;;;16.00;14.50;;;;;12.74;71.63;102043.00;5056970;28;62719;-61
2021/10/11 06:45:23;;;;;;;;;16.75;15.00;;;;;12.75;71.72;102034.13;5039548;28;45562;-61
2021/10/11 06:47:48;;;;;;;;;15.25;14.75;;;;;12.75;71.69;102047.31;5056452;28;66235;-61
2021/10/11 06:50:14;;;;;;;;;18.50;14.25;;;;;12.75;71.46;102050.81;5056775;28;64117;-61
2021/10/11 06:52:39;;;;;;;;;17.25;14.25;;;;;12.77;71.66;102054.19;5056725;28;62869;-61
2021/10/11 06:55:05;;;;;;;;;14.50;12.50;;;;;12.77;71.62;102053.31;5057026;28;53978;-61
2021/10/11 06:57:31;;;;;;;;;17.75;14.00;;;;;12.79;71.42;102056.69;5022731;28;45501;-61
2021/10/11 06:59:56;;;;;;;;;15.50;15.00;;;;;12.80;71.17;102054.91;5056692;28;68202;-61
2021/10/11 07:02:21;;;;;;;;;16.50;13.75;;;;;12.80;71.72;102047.81;5057670;28;45181;-61
2021/10/11 07:04:47;;;;;;;;;18.75;16.25;;;;;12.83;71.48;102046.78;5057428;28;45445;-61
2021/10/11 07:07:12;;;;;;;;;11.75;9.75;;;;;12.85;71.54;102050.13;5057168;28;46043;-60
2021/10/11 07:09:38;;;;;;;;;13.75;11.25;;;;;12.89;71.20;102057.69;5039450;28;45217;-61
2021/10/11 07:12:04;;;;;;;;;15.75;13.75;;;;;12.90;70.85;102056.75;5056477;28;57521;-61
2021/10/11 07:14:29;;;;;;;;;17.25;12.75;;;;;12.90;71.39;102062.00;5056861;28;45436;-61
2021/10/11 07:16:54;;;;;;;;;16.25;13.25;;;;;12.94;70.69;102060.00;5056064;28;66205;-61
2021/10/11 07:19:20;;;;;;;;;12.50;11.25;;;;;12.96;70.92;102066.00;5056615;28;49177;-60
2021/10/11 07:21:45;;;;;;;;;12.75;12.00;;;;;13.02;70.64;102067.34;5056228;28;68367;-61
2021/10/11 07:24:12;;;;;;;;;13.75;12.75;;;;;13.05;70.52;102065.31;5056722;28;45475;-61
2021/10/11 07:26:39;;;;;;;;;15.75;13.25;;;;;13.08;70.42;102072.16;5056537;28;45657;-61
2021/10/11 07:29:04;;;;;;;;;15.25;12.75;;;;;13.12;70.70;102076.25;5056474;28;45352;-61
2021/10/11 07:31:29;;;;;;;;;16.00;11.50;;;;;13.15;70.15;102083.94;5055844;28;64606;-61
2021/10/11 07:33:55;;;;;;;;;16.00;13.00;;;;;13.18;70.67;102082.88;5055823;28;66090;-61
2021/10/11 07:36:20;;;;;;;;;15.25;12.25;;;;;13.20;70.59;102094.16;5038442;28;47192;-61
2021/10/11 07:38:46;;;;;;;;;12.75;11.75;;;;;13.24;70.15;102095.59;5056032;28;45256;-61
2021/10/11 07:41:11;;;;;;;;;17.25;12.50;;;;;13.28;70.34;102089.13;5056166;28;59457;-61
2021/10/11 07:43:36;;;;;;;;;14.75;11.00;;;;;13.33;70.05;102101.97;5037268;28;68501;-61
2021/10/11 07:46:03;;;;;;;;;10.25;9.00;;;;;13.39;70.16;102096.25;5055862;28;65984;-61
2021/10/11 07:48:29;;;;;;;;;9.75;9.00;;;;;13.44;69.86;102095.94;5056678;28;45875;-61
2021/10/11 07:50:55;;;;;;;;;11.25;10.00;;;;;13.49;69.85;102097.25;5038554;28;45285;-61
2021/10/11 07:53:20;;;;;;;;;13.25;11.00;;;;;13.57;69.10;102098.47;5056625;28;45384;-61
2021/10/11 07:55:45;;;;;;;;;10.75;9.00;;;;;13.64;68.76;102094.41;5055956;28;61007;-61
2021/10/11 07:58:11;;;;;;;;;11.75;9.25;;;;;13.76;68.36;102096.13;5055196;28;65151;-61
2021/10/11 08:00:37;;;;;;;;;10.00;8.00;;;;;13.92;68.75;102093.13;5056770;28;45478;-61
2021/10/11 08:03:02;;;;;;;;;7.25;7.00;;;;;14.12;68.21;102103.09;5055777;28;48392;-61
2021/10/11 08:05:28;;;;;;;;;10.00;9.25;;;;;14.30;67.13;102106.94;5038321;28;45370;-61
2021/10/11 08:07:53;;;;;;;;;9.25;8.00;;;;;14.47;66.71;102110.88;5056271;28;45448;-61
2021/10/11 08:10:18;;;;;;;;;7.50;6.25;;;;;14.68;66.36;102118.00;5055548;28;63423;-61
2021/10/11 08:12:44;;;;;;;;;12.50;9.00;;;;;14.89;66.04;102111.97;5056160;28;45389;-61
2021/10/11 08:15:09;;;;;;;;;10.75;8.00;;;;;15.07;64.98;102109.63;5055212;28;70119;-61
2021/10/11 08:17:35;;;;;;;;;8.00;6.00;;;;;15.23;63.78;102115.34;5056423;28;45314;-61
2021/10/11 08:20:00;;;;;;;;;7.75;5.00;;;;;15.37;63.69;102129.19;5038431;28;45313;-61
2021/10/11 08:22:25;;;;;;;;;5.50;5.50;;;;;15.56;63.32;102117.91;5056203;28;45537;-61
2021/10/11 08:24:51;;;;;;;;;9.00;5.00;;;;;15.76;62.40;102120.66;5055472;28;46552;-61
2021/10/11 08:27:17;;;;;;;;;6.25;5.00;;;;;15.96;62.25;102111.88;5036869;28;45433;-61
2021/10/11 08:29:52;;;;;;;;;6.00;6.00;;;;;16.10;61.37;102115.97;5038085;28;45455;-62
2021/10/11 08:32:22;;;;;;;;;4.75;4.75;;;;;16.16;61.24;102117.28;5039276;28;45314;-61
2021/10/11 08:34:49;;;;;;;;;7.00;4.75;;;;;16.22;60.92;102115.88;5056011;28;48068;-61
2021/10/11 08:37:14;;;;;;;;;4.25;3.00;;;;;16.23;60.63;102118.38;5056037;28;45918;-61
2021/10/11 08:39:41;;;;;;;;;7.75;4.25;;;;;16.26;60.21;102117.28;5055655;28;52125;-61
2021/10/11 08:42:06;;;;;;;;;7.00;5.50;;;;;16.26;59.95;102114.63;5038414;28;45542;-61
2021/10/11 08:44:32;;;;;;;;;7.75;4.75;;;;;16.27;60.06;102118.97;5055241;28;63281;-61
2021/10/11 08:46:59;;;;;;;;;6.50;4.00;;;;;16.27;59.61;102121.63;5055564;28;52454;-61
2021/10/11 08:49:24;;;;;;;;;6.00;4.00;;;;;16.28;59.54;102125.97;5056124;28;45254;-61
2021/10/11 08:51:49;;;;;;;;;7.00;5.25;;;;;16.29;59.89;102119.69;5055151;28;66522;-61
2021/10/11 08:54:15;;;;;;;;;5.00;4.00;;;;;16.39;59.32;102123.19;5036799;28;71526;-61
2021/10/11 08:56:40;;;;;;;;;4.00;3.00;;;;;16.49;58.71;102122.38;5054899;28;67643;-61
2021/10/11 08:59:05;;;;;;;;;7.00;5.50;;;;;16.58;58.41;102129.50;5037858;28;45416;-62
2021/10/11 09:01:32;;;;;;;;;5.00;4.75;;;;;16.71;58.51;102132.75;5036900;28;62269;-61
2021/10/11 09:04:02;;;;;;;;;5.00;3.00;;;;;16.88;57.93;102135.72;5054503;28;45456;-61
2021/10/11 09:06:27;;;;;;;;;3.00;3.00;;;;;17.03;56.97;102131.69;5037598;28;45696;-60
2021/10/11 09:08:53;;;;;;;;;8.75;6.75;;;;;17.20;57.16;102134.63;5054807;28;65443;-62
2021/10/11 09:11:18;;;;;;;;;8.00;5.00;;;;;17.42;56.06;102130.00;5058194;28;45638;-61
2021/10/11 09:13:52;;;;;;;;;3.50;3.00;;;;;17.60;55.85;102135.41;5058583;28;46040;-62
2021/10/11 09:16:34;;;;;;;;;4.50;3.50;;;;;17.76;55.06;102138.28;5041446;28;45980;-61
2021/10/11 09:19:18;;;;;;;;;5.00;3.00;;;;;17.86;54.77;102143.59;5059176;28;45315;-61
2021/10/11 09:21:43;;;;;;;;;7.00;6.00;;;;;17.91;53.92;102140.50;5041547;28;45376;-61
2021/10/11 09:24:10;;;;;;;;;12.50;11.25;;;;;17.98;54.03;102146.91;5058049;28;61722;-61
2021/10/11 09:26:45;;;;;;;;;5.75;3.50;;;;;18.09;53.65;102135.28;5058923;28;45390;-62
2021/10/11 09:29:10;;;;;;;;;5.00;2.00;;;;;18.22;52.78;102138.44;5058931;28;45411;-61
2021/10/11 09:31:39;;;;;;;;;1.00;1.00;;;;;18.31;52.72;102127.91;5059017;28;45357;-61
2021/10/11 09:34:04;;;;;;;;;2.25;2.00;;;;;18.44;52.51;102135.53;5040765;28;46210;-62
2021/10/11 09:36:30;;;;;;;;;1.25;1.25;;;;;18.57;51.96;102129.84;5058795;28;45302;-61
2021/10/11 09:38:59;;;;;;;;;3.00;2.00;;;;;18.64;51.19;102120.25;5058966;28;45281;-62
2021/10/11 09:41:24;;;;;;;;;11.00;10.50;;;;;18.68;51.28;102124.31;5058556;28;45783;-61
2021/10/11 09:43:49;;;;;;;;;5.75;4.25;;;;;18.70;50.95;102122.31;5040360;28;45455;-61
2021/10/11 09:46:16;;;;;;;;;4.00;3.00;;;;;18.73;50.49;102118.53;5058621;28;45443;-61
2021/10/11 09:48:55;;;;;;;;;0.75;0.50;;;;;18.68;50.25;102109.19;5041006;28;45395;-61
2021/10/11 09:51:21;;;;;;;;;1.50;1.25;;;;;18.64;50.86;102125.59;5041101;28;45248;-62
2021/10/11 09:53:46;;;;;;;;;2.75;1.25;;;;;18.64;50.54;102121.13;5058048;28;46363;-62
2021/10/11 09:56:12;;;;;;;;;2.50;2.00;;;;;18.65;50.51;102116.63;5058405;28;45377;-62
2021/10/11 09:58:38;;;;;;;;;1.75;1.75;;;;;18.58;50.21;102116.41;5058215;28;45458;-62
2021/10/11 10:01:03;;;;;;;;;3.00;1.00;;;;;18.48;50.05;102118.28;5039798;28;51622;-61
2021/10/11 10:03:30;;;;;;;;;2.50;1.00;;;;;18.41;50.33;102123.38;5039266;28;67132;-61
2021/10/11 10:05:55;;;;;;;;;2.75;2.00;;;;;18.30;49.63;102123.56;5040523;28;45296;-61
2021/10/11 10:08:22;;;;;;;;;4.50;1.00;;;;;18.22;49.92;102116.34;5057553;28;59554;-61
2021/10/11 10:10:51;;;;;;;;;2.00;1.00;;;;;18.19;49.69;102122.78;5058118;28;45577;-62
2021/10/11 10:13:18;;;;;;;;;2.00;1.00;;;;;18.20;50.03;102119.13;5040088;28;45379;-61
2021/10/11 10:15:43;;;;;;;;;1.00;1.00;;;;;18.23;49.46;102121.50;5040032;28;45731;-62
2021/10/11 10:18:13;;;;;;;;;3.75;2.00;;;;;18.30;49.46;102120.91;5057820;28;45305;-61
2021/10/11 10:20:50;;;;;;;;;5.00;2.00;;;;;18.40;49.08;102119.03;5040443;28;45206;-61
2021/10/11 10:23:25;;;;;;;;;1.25;1.00;;;;;18.54;48.87;102113.22;5057903;28;45446;-62
2021/10/11 10:25:50;;;;;;;;;4.00;1.50;;;;;18.65;48.15;102116.63;5040571;28;45348;-61
2021/10/11 10:28:16;;;;;;;;;2.00;2.00;;;;;18.66;46.54;102118.28;5057454;28;59895;-62
2021/10/11 10:30:42;;;;;;;;;0.75;0.75;;;;;18.61;47.15;102115.25;5040155;28;45527;-62
2021/10/11 10:33:09;;;;;;;;;1.00;1.00;;;;;18.57;46.78;102119.19;5038694;28;70366;-61
2021/10/11 10:35:39;;;;;;;;;3.00;2.00;;;;;18.54;46.17;102107.03;5057683;28;45856;-62
2021/10/11 10:38:17;;;;;;;;;2.00;1.00;;;;;18.56;46.60;102118.38;5057915;28;45317;-62
2021/10/11 10:40:43;;;;;;;;;2.00;0.25;;;;;18.69;46.46;102115.31;5039828;28;45411;-61
2021/10/11 10:43:10;;;;;;;;;0.75;0.75;;;;;18.89;46.90;102115.19;5039724;28;46508;-61
2021/10/11 10:45:36;;;;;;;;;1.00;1.00;;;;;19.12;45.53;102110.25;5023111;28;45950;-65
2021/10/11 10:48:01;;;;;;;;;3.00;2.00;;;;;19.27;44.21;102110.53;5057880;28;45352;-61
2021/10/11 10:50:29;;;;;;;;;2.50;0.00;;;;;19.40;43.67;102108.31;5057831;28;45612;-62
2021/10/11 10:52:57;;;;;;;;;2.00;1.25;;;;;19.52;42.76;102105.38;5056321;28;48387;-61
2021/10/11 10:55:22;;;;;;;;;2.50;1.00;;;;;19.60;42.94;102110.78;5057590;28;45328;-61
2021/10/11 10:57:48;;;;;;;;;2.75;1.00;;;;;19.63;43.01;102118.44;5057494;28;45300;-61
2021/10/11 11:00:18;;;;;;;;;2.00;2.00;;;;;19.65;41.96;102115.63;5057554;28;45392;-62
2021/10/11 11:02:50;;;;;;;;;0.50;0.50;;;;;19.69;41.65;102115.13;5057303;28;45539;-61
2021/10/11 11:05:16;;;;;;;;;3.75;1.00;;;;;19.81;41.83;102120.19;5057349;28;45898;-62
2021/10/11 11:07:42;;;;;;;;;2.00;1.00;;;;;19.93;41.90;102115.44;5057320;28;45317;-62